METAR Data
IDs: Format: Raw Decoded Include TAF

Data at: 2007 UTC 31 Jan 2023

KLRD 311956Z 36010KT 8SM OVC009 05/04 A3021 RMK AO2 RAE55 SLP236 P0000 T00500039